Time;durP1;ratioP1;P1;durP2;ratioP2;P2;SDS_P1;SDS_P2;PMS_P1;PMS_P2;Temp;Humidity;BMP_temperature;BMP_pressure;BME280_temperature;BME280_humidity;BME280_pressure;Samples;Min_cycle;Max_cycle;Signal;HPM_P1;HPM_P2
2023/01/24 00:00:55;;;;;;;14.55;8.27;;;2.90;99.90;;;-144.05;67.95;125687.94;5059954;28;20025;-81
2023/01/24 00:03:22;;;;;;;15.05;9.80;;;2.90;99.90;;;-144.05;67.39;125687.94;5060278;28;20094;-79
2023/01/24 00:05:49;;;;;;;17.88;10.05;;;2.90;99.90;;;-144.05;67.73;125687.94;5065165;28;20043;-82
2023/01/24 00:08:19;;;;;;;17.55;9.10;;;2.90;99.90;;;-144.05;66.62;125687.94;5035002;28;20409;-79
2023/01/24 00:10:47;;;;;;;15.23;8.95;;;2.80;99.90;;;-144.05;67.66;125687.94;5053180;28;20047;-81
2023/01/24 00:13:15;;;;;;;13.98;8.32;;;2.90;99.90;;;-144.05;67.66;125687.94;5052802;28;20025;-80
2023/01/24 00:15:42;;;;;;;15.48;8.85;;;2.90;99.90;;;-144.05;67.06;125687.94;5034920;28;20025;-81
2023/01/24 00:18:08;;;;;;;16.75;9.07;;;2.90;99.90;;;-144.05;67.37;125687.94;5034375;28;20043;-82
2023/01/24 00:20:34;;;;;;;17.35;9.38;;;2.90;99.90;;;-144.05;66.72;125687.94;5034966;28;20048;-80
2023/01/24 00:23:00;;;;;;;14.63;8.55;;;2.90;99.90;;;-144.05;67.32;125687.94;5034814;28;20033;-81
2023/01/24 00:25:26;;;;;;;13.05;8.02;;;2.90;99.90;;;-144.05;67.24;125687.94;5034037;28;20117;-81
2023/01/24 00:27:52;;;;;;;14.77;8.45;;;2.90;99.90;;;-144.05;67.12;125687.94;5034822;28;20041;-85
2023/01/24 00:30:17;;;;;;;15.70;9.43;;;2.80;99.90;;;-144.05;67.35;125687.94;5052147;28;20036;-82
2023/01/24 00:32:43;;;;;;;17.33;9.18;;;2.90;99.90;;;-144.05;67.38;125687.94;5034429;28;20029;-81
2023/01/24 00:35:09;;;;;;;16.05;9.13;;;2.80;99.90;;;-144.05;68.08;125687.94;5034431;28;20060;-82
2023/01/24 00:37:35;;;;;;;14.15;9.05;;;2.90;99.90;;;-144.05;67.64;125687.94;5034284;28;20393;-80
2023/01/24 00:40:01;;;;;;;16.73;9.23;;;2.80;99.90;;;-144.05;67.58;125687.94;5052039;28;20120;-81
2023/01/24 00:42:27;;;;;;;13.90;8.20;;;2.80;99.90;;;-144.05;67.70;125687.94;5034639;28;20465;-81
2023/01/24 00:44:53;;;;;;;14.70;8.10;;;2.80;99.90;;;-144.05;67.05;125687.94;5034322;28;20040;-82
2023/01/24 00:47:19;;;;;;;13.90;8.07;;;2.80;99.90;;;-144.05;67.49;125687.94;5033932;28;20416;-82
2023/01/24 00:49:44;;;;;;;14.40;8.05;;;2.80;99.90;;;-144.05;67.20;125687.94;5033697;28;20397;-83
2023/01/24 00:52:10;;;;;;;14.20;8.18;;;2.80;99.90;;;-144.05;67.18;125687.94;5033865;28;20045;-83
2023/01/24 00:54:36;;;;;;;16.27;9.25;;;2.80;99.90;;;-144.05;67.19;125687.94;5052213;28;20058;-82
2023/01/24 00:57:02;;;;;;;13.23;8.38;;;2.80;99.90;;;-144.05;67.09;125687.94;5033899;28;20439;-80
2023/01/24 00:59:28;;;;;;;16.67;8.70;;;2.80;99.90;;;-144.05;66.56;125687.94;5033489;28;20036;-81
2023/01/24 01:01:54;;;;;;;14.00;8.82;;;2.80;99.90;;;-144.05;66.63;125687.94;5033767;28;20041;-80
2023/01/24 01:04:20;;;;;;;14.98;8.55;;;2.80;99.90;;;-144.05;67.02;125687.94;5033748;28;20306;-82
2023/01/24 01:06:45;;;;;;;14.07;8.40;;;2.80;99.90;;;-144.05;66.53;125687.94;5033683;28;20021;-81
2023/01/24 01:09:11;;;;;;;11.95;7.65;;;2.80;99.90;;;-144.05;66.44;125687.94;5033755;28;20128;-81
2023/01/24 01:11:41;;;;;;;15.35;8.45;;;2.80;99.90;;;-144.05;66.33;125687.94;5033429;28;20065;-80
2023/01/24 01:14:09;;;;;;;12.68;7.28;;;2.80;99.90;;;-144.05;66.27;125687.94;5033873;28;20132;-81
2023/01/24 01:16:37;;;;;;;14.02;7.25;;;2.80;99.90;;;-144.05;65.97;125687.94;5051595;28;20029;-82
2023/01/24 01:19:05;;;;;;;13.35;7.85;;;2.80;99.90;;;-144.05;66.08;125687.94;5033736;28;20089;-81
2023/01/24 01:21:31;;;;;;;14.43;7.75;;;2.80;99.90;;;-144.05;66.47;125687.94;5051596;28;20025;-81
2023/01/24 01:23:57;;;;;;;11.30;6.78;;;2.80;99.90;;;-144.05;66.38;125687.94;5051622;28;20025;-82
2023/01/24 01:26:23;;;;;;;12.65;7.68;;;2.90;99.90;;;-144.05;65.66;125687.94;5034270;28;20044;-82
2023/01/24 01:28:50;;;;;;;11.27;7.00;;;2.80;99.90;;;-144.05;66.56;125687.94;5066662;28;20044;-80
2023/01/24 01:31:16;;;;;;;11.40;7.15;;;2.80;99.90;;;-144.05;66.16;125687.94;5069703;28;20079;-83
2023/01/24 01:33:45;;;;;;;12.30;7.47;;;2.80;99.90;;;-144.05;66.17;125687.94;5051722;28;20040;-81
2023/01/24 01:36:12;;;;;;;12.07;7.93;;;2.80;99.90;;;-144.05;65.49;125687.94;5051393;28;20489;-81
2023/01/24 01:38:38;;;;;;;10.45;6.65;;;2.80;99.90;;;-144.05;65.43;125687.94;5051203;28;20032;-82
2023/01/24 01:41:05;;;;;;;9.90;6.70;;;2.80;99.90;;;-144.05;65.33;125687.94;5033528;28;20037;-83
2023/01/24 01:43:31;;;;;;;12.45;7.45;;;2.80;99.90;;;-144.05;65.28;125687.94;5033639;28;20037;-81
2023/01/24 01:46:21;;;;;;;11.10;6.70;;;2.80;99.90;;;-144.05;65.53;125687.94;5033510;28;20132;-82
2023/01/24 01:49:01;;;;;;;10.07;6.78;;;2.80;99.90;;;-144.05;65.27;125687.94;5033484;28;20449;-81
2023/01/24 01:51:49;;;;;;;10.55;6.97;;;2.80;99.90;;;-144.05;65.01;125687.94;5051339;28;20029;-81
2023/01/24 01:54:36;;;;;;;11.27;7.43;;;2.80;99.90;;;-144.05;64.85;125687.94;5033925;28;20044;-83
2023/01/24 01:57:28;;;;;;;10.23;7.05;;;2.80;99.90;;;-144.05;65.33;125687.94;5034459;28;20033;-81
2023/01/24 02:00:08;;;;;;;9.48;5.68;;;2.80;99.90;;;-144.05;65.70;125687.94;5051713;28;20033;-84
2023/01/24 02:02:37;;;;;;;9.23;6.13;;;2.80;99.90;;;-144.05;64.89;125687.94;5034888;28;20033;-82
2023/01/24 02:05:09;;;;;;;9.68;6.30;;;2.80;99.90;;;-144.05;64.23;125687.94;5035151;28;20560;-81
2023/01/24 02:08:03;;;;;;;9.73;6.18;;;2.80;99.90;;;-144.05;64.70;125687.94;5046738;28;20029;-83
2023/01/24 02:11:37;;;;;;;10.35;6.88;;;2.80;99.90;;;-144.05;64.54;125687.94;5038114;28;20374;-81
2023/01/24 02:13:16;;;;;;;9.73;6.25;;;2.80;99.90;;;-144.05;65.00;125687.94;5051048;28;20095;-82
2023/01/24 02:16:04;;;;;;;13.85;6.88;;;2.80;99.90;;;-144.05;64.97;125687.94;5033269;28;20024;-83
2023/01/24 02:18:35;;;;;;;10.68;5.88;;;2.90;99.90;;;-144.05;65.42;125687.94;5033101;28;20040;-82
2023/01/24 02:21:06;;;;;;;10.18;6.47;;;2.80;99.90;;;-144.05;65.38;125687.94;5051034;28;20462;-81
2023/01/24 02:24:23;;;;;;;11.45;7.10;;;2.80;99.90;;;-144.05;65.29;125687.94;5033023;28;20044;-82
2023/01/24 02:26:49;;;;;;;10.38;6.68;;;2.80;99.90;;;-144.05;65.88;125687.94;5033050;28;20032;-81
2023/01/24 02:29:17;;;;;;;12.88;7.25;;;2.80;99.90;;;-144.05;65.82;125687.94;5050883;28;20029;-81
2023/01/24 02:32:00;;;;;;;11.00;6.32;;;2.80;99.90;;;-144.05;64.71;125687.94;5033143;28;20029;-81
2023/01/24 02:34:29;;;;;;;10.02;6.25;;;2.80;99.90;;;-144.05;65.06;125687.94;5032873;28;20037;-81
2023/01/24 02:37:09;;;;;;;9.98;5.90;;;2.80;99.90;;;-144.05;65.29;125687.94;5033000;28;20037;-81
2023/01/24 02:40:05;;;;;;;11.27;6.93;;;2.70;99.90;;;-144.05;65.58;125687.94;5051062;28;20033;-80
2023/01/24 02:42:38;;;;;;;10.65;6.57;;;2.80;99.90;;;-144.05;65.07;125687.94;5051115;28;20124;-81
2023/01/24 02:45:27;;;;;;;13.43;7.07;;;2.80;99.90;;;-144.05;65.06;125687.94;5051305;28;20048;-80
2023/01/24 02:47:56;;;;;;;11.07;6.25;;;2.80;99.90;;;-144.05;65.17;125687.94;5033647;28;20025;-81
2023/01/24 02:53:28;;;;;;;10.15;6.65;;;2.70;99.90;;;-144.05;65.09;125687.94;5036505;28;20021;-82
2023/01/24 02:53:30;;;;;;;10.15;6.43;;;2.80;99.90;;;-144.05;64.88;125687.94;5054468;28;20558;-82
2023/01/24 02:58:45;;;;;;;9.55;6.13;;;2.70;99.90;;;-144.05;65.07;125687.94;5054346;28;20031;-81
2023/01/24 03:01:14;;;;;;;10.77;5.93;;;2.70;99.90;;;-144.05;65.25;125687.94;5036129;28;20490;-82
2023/01/24 03:03:42;;;;;;;11.60;6.10;;;2.80;99.90;;;-144.05;65.35;125687.94;5036359;28;20029;-82
2023/01/24 03:06:11;;;;;;;9.70;6.38;;;2.70;99.90;;;-144.05;65.30;125687.94;5036369;28;20021;-81
2023/01/24 03:08:38;;;;;;;11.50;6.70;;;2.70;99.90;;;-144.05;65.64;125687.94;5036345;28;20477;-83
2023/01/24 03:11:06;;;;;;;10.93;6.70;;;2.70;99.90;;;-144.05;65.48;125687.94;5052869;28;20032;-80
2023/01/24 03:35:35;;;;;;;11.82;6.90;;;2.70;99.90;;;-144.05;64.97;125687.94;5054351;28;20095;-82
2023/01/24 03:40:51;;;;;;;11.10;6.60;;;2.70;99.90;;;-144.05;64.96;125687.94;5053893;28;20798;-81
2023/01/24 03:43:17;;;;;;;11.40;6.82;;;2.70;99.90;;;-144.05;64.94;125687.94;5035809;28;20075;-80
2023/01/24 03:45:43;;;;;;;12.02;6.93;;;2.70;99.90;;;-144.05;65.64;125687.94;5035525;28;20067;-84
2023/01/24 03:48:12;;;;;;;11.32;6.05;;;2.70;99.90;;;-144.05;65.44;125687.94;5035582;28;20029;-81
2023/01/24 03:53:30;;;;;;;11.30;7.00;;;2.70;99.90;;;-144.05;65.64;125687.94;5053369;28;20086;-80
2023/01/24 03:56:01;;;;;;;13.05;7.78;;;2.70;99.90;;;-144.05;65.72;125687.94;5053483;28;20062;-83
2023/01/24 03:58:30;;;;;;;13.10;7.53;;;2.70;99.90;;;-144.05;65.02;125687.94;5035124;28;20039;-82
2023/01/24 04:00:57;;;;;;;12.40;7.85;;;2.70;99.90;;;-144.05;65.17;125687.94;5051968;28;20037;-82
2023/01/24 04:03:24;;;;;;;12.00;7.57;;;2.60;99.90;;;-144.05;65.43;125687.94;5035421;28;20036;-80
2023/01/24 04:05:51;;;;;;;14.02;7.22;;;2.60;99.90;;;-144.05;65.46;125687.94;5035846;28;20099;-82
2023/01/24 04:08:19;;;;;;;13.02;8.13;;;2.60;99.90;;;-144.05;65.43;125687.94;5053002;28;20037;-80
2023/01/24 04:10:44;;;;;;;12.55;7.45;;;2.60;99.90;;;-144.05;65.41;125687.94;5034958;28;20044;-82
2023/01/24 04:13:11;;;;;;;12.07;7.63;;;2.60;99.90;;;-144.05;65.58;125687.94;5053111;28;20041;-80
2023/01/24 04:15:38;;;;;;;12.68;8.05;;;2.70;99.90;;;-144.05;65.67;125687.94;5053157;28;20040;-78
2023/01/24 04:18:06;;;;;;;11.85;7.88;;;2.60;99.90;;;-144.05;65.86;125687.94;5034695;28;20060;-81
2023/01/24 04:20:36;;;;;;;14.13;8.07;;;2.60;99.90;;;-144.05;65.62;125687.94;5052822;28;20035;-81
2023/01/24 04:23:06;;;;;;;12.15;7.97;;;2.60;99.90;;;-144.05;65.72;125687.94;5034901;28;20480;-80
2023/01/24 04:25:34;;;;;;;12.77;7.70;;;2.60;99.90;;;-144.05;65.09;125687.94;5034918;28;20029;-82
2023/01/24 04:28:01;;;;;;;11.88;7.53;;;2.60;99.90;;;-144.05;65.46;125687.94;5035110;28;20060;-82
2023/01/24 04:30:27;;;;;;;12.93;8.23;;;2.60;99.90;;;-144.05;65.41;125687.94;5052471;28;20044;-81
2023/01/24 04:32:53;;;;;;;14.02;8.10;;;2.60;99.90;;;-144.05;65.27;125687.94;5053050;28;20033;-81
2023/01/24 04:35:27;;;;;;;13.10;8.27;;;2.60;99.90;;;-144.05;66.08;125687.94;5054329;28;20047;-80
2023/01/24 04:37:58;;;;;;;13.30;8.63;;;2.50;99.90;;;-144.05;65.63;125687.94;5036061;28;20036;-82
2023/01/24 04:40:23;;;;;;;13.27;7.72;;;2.50;99.90;;;-144.05;66.53;125687.94;5034872;28;20137;-81
2023/01/24 04:42:49;;;;;;;12.55;8.30;;;2.50;99.90;;;-144.05;65.49;125687.94;5034859;28;20425;-82
2023/01/24 04:45:15;;;;;;;14.82;8.98;;;2.50;99.90;;;-144.05;65.85;125687.94;5034643;28;20029;-82
2023/01/24 04:47:41;;;;;;;15.63;8.98;;;2.50;99.90;;;-144.05;65.82;125687.94;5034665;28;20047;-81
2023/01/24 04:50:08;;;;;;;13.52;8.38;;;2.50;99.90;;;-144.05;65.72;125687.94;5034227;28;20549;-80
2023/01/24 04:52:34;;;;;;;14.35;8.48;;;2.50;99.90;;;-144.05;65.90;125687.94;5052441;28;20482;-82
2023/01/24 04:55:00;;;;;;;14.35;8.75;;;2.50;99.90;;;-144.05;65.57;125687.94;5051324;28;20508;-82
2023/01/24 04:57:26;;;;;;;14.25;8.75;;;2.50;99.90;;;-144.05;65.66;125687.94;5034352;28;20405;-81
2023/01/24 04:59:51;;;;;;;13.43;8.52;;;2.50;99.90;;;-144.05;65.94;125687.94;5052011;28;20065;-81
2023/01/24 05:02:17;;;;;;;14.48;8.93;;;2.50;99.90;;;-144.05;65.98;125687.94;5034506;28;20107;-80
2023/01/24 05:04:43;;;;;;;13.75;8.55;;;2.50;99.90;;;-144.05;66.27;125687.94;5034444;28;20025;-83
2023/01/24 05:07:18;;;;;;;14.07;8.68;;;2.50;99.90;;;-144.05;65.21;125687.94;5052583;28;20032;-81
2023/01/24 05:09:43;;;;;;;13.45;8.70;;;2.50;99.90;;;-144.05;65.51;125687.94;5033923;28;20511;-79
2023/01/24 05:12:10;;;;;;;13.65;8.95;;;2.50;99.90;;;-144.05;65.72;125687.94;5033539;28;20068;-81
2023/01/24 05:14:36;;;;;;;14.02;8.75;;;2.50;99.90;;;-144.05;65.79;125687.94;5034315;28;20033;-81
2023/01/24 05:17:02;;;;;;;13.73;9.20;;;2.50;99.90;;;-144.05;66.41;125687.94;5034287;28;20033;-81
2023/01/24 05:19:28;;;;;;;14.07;8.95;;;2.40;99.90;;;-144.05;66.15;125687.94;5033811;28;20477;-78
2023/01/24 05:21:54;;;;;;;13.98;9.13;;;2.50;99.90;;;-144.05;66.56;125687.94;5034662;28;20039;-80
2023/01/24 05:24:39;;;;;;;14.93;9.30;;;2.40;99.90;;;-144.05;66.13;125687.94;5053158;28;20033;-80
2023/01/24 05:27:15;;;;;;;15.90;9.20;;;2.40;99.90;;;-144.05;65.88;125687.94;5062529;28;20048;-77
2023/01/24 05:29:40;;;;;;;13.88;8.98;;;2.40;99.90;;;-144.05;66.12;125687.94;5051580;28;20144;-80
2023/01/24 05:32:06;;;;;;;16.15;9.65;;;2.40;99.90;;;-144.05;66.43;125687.94;5052283;28;20190;-81
2023/01/24 05:34:35;;;;;;;14.25;9.23;;;2.50;99.90;;;-144.05;66.31;125687.94;5034296;28;20035;-83
2023/01/24 05:37:01;;;;;;;14.30;9.65;;;2.50;99.90;;;-144.05;66.15;125687.94;5033973;28;20033;-80
2023/01/24 05:39:28;;;;;;;15.55;9.05;;;2.50;99.90;;;-144.05;66.39;125687.94;5033768;28;20025;-79
2023/01/24 05:41:56;;;;;;;16.27;9.98;;;2.50;99.90;;;-144.05;65.95;125687.94;5017485;28;20041;-80
2023/01/24 05:44:32;;;;;;;17.75;9.57;;;2.40;99.90;;;-144.05;65.66;125687.94;5034191;28;20031;-81
2023/01/24 05:46:57;;;;;;;15.00;9.18;;;2.40;99.90;;;-144.05;66.04;125687.94;5033134;28;20385;-81
2023/01/24 05:49:23;;;;;;;16.27;9.32;;;2.40;99.90;;;-144.05;65.83;125687.94;5051779;28;20304;-82
2023/01/24 05:51:49;;;;;;;14.50;9.23;;;2.50;99.90;;;-144.05;66.03;125687.94;5034071;28;20515;-81
2023/01/24 05:54:15;;;;;;;14.73;9.10;;;2.40;99.90;;;-144.05;65.83;125687.94;5052332;28;20037;-83
2023/01/24 05:56:42;;;;;;;15.48;9.07;;;2.40;99.90;;;-144.05;66.65;125687.94;5034025;28;20123;-81
2023/01/24 05:59:10;;;;;;;16.02;9.35;;;2.40;99.90;;;-144.05;66.02;125687.94;5034648;28;20036;-80
2023/01/24 06:01:36;;;;;;;15.13;9.15;;;2.40;99.90;;;-144.05;66.06;125687.94;5034257;28;20094;-81
2023/01/24 06:04:02;;;;;;;15.52;9.73;;;2.40;99.90;;;-144.05;66.36;125687.94;5034028;28;20025;-83
2023/01/24 06:06:27;;;;;;;14.23;9.02;;;2.40;99.90;;;-144.05;66.44;125687.94;5052037;28;20061;-81
2023/01/24 06:08:53;;;;;;;12.70;8.23;;;2.40;99.90;;;-144.05;66.22;125687.94;5034062;28;20385;-80
2023/01/24 06:11:24;;;;;;;14.70;8.38;;;2.40;99.90;;;-144.05;66.27;125687.94;5034274;28;20025;-81
2023/01/24 06:13:53;;;;;;;15.85;9.23;;;2.40;99.90;;;-144.05;65.95;125687.94;5034953;28;20044;-82
2023/01/24 06:16:24;;;;;;;13.05;8.70;;;2.40;99.90;;;-144.05;66.04;125687.94;5052398;28;20025;-80
2023/01/24 06:18:52;;;;;;;12.50;8.18;;;2.40;99.90;;;-144.05;66.65;125687.94;5051857;28;20508;-81
2023/01/24 06:21:38;;;;;;;11.93;7.97;;;2.40;99.90;;;-144.05;66.25;125687.94;5034226;28;20389;-82
2023/01/24 06:24:05;;;;;;;;;;;2.40;99.90;;;-144.05;66.16;125687.94;5037936;28;20108;-82
2023/01/24 06:26:32;;;;;;;14.25;8.45;;;2.40;99.90;;;-144.05;66.07;125687.94;5052939;28;19935;-79
2023/01/24 06:28:58;;;;;;;12.95;8.98;;;2.40;99.90;;;-144.05;65.68;125687.94;5061882;28;20017;-82
2023/01/24 06:32:07;;;;;;;14.68;8.40;;;2.40;99.90;;;-144.05;65.97;125687.94;5062143;28;20029;-80
2023/01/24 06:35:11;;;;;;;15.80;8.45;;;2.40;99.90;;;-144.05;65.69;125687.94;5057341;28;20037;-81
2023/01/24 06:37:49;;;;;;;13.32;8.70;;;2.40;99.90;;;-144.05;66.07;125687.94;5037818;28;20162;-83
2023/01/24 06:40:22;;;;;;;12.38;7.70;;;2.40;99.90;;;-144.05;66.00;125687.94;5037854;28;20072;-80
2023/01/24 06:42:50;;;;;;;11.90;7.70;;;2.40;99.90;;;-144.05;65.70;125687.94;5037472;28;20075;-82
2023/01/24 06:45:17;;;;;;;13.20;8.00;;;2.40;99.90;;;-144.05;65.56;125687.94;5037649;28;20044;-83
2023/01/24 06:47:43;;;;;;;11.43;7.25;;;2.40;99.90;;;-144.05;65.87;125687.94;5037528;28;20057;-80
2023/01/24 06:50:22;;;;;;;11.50;7.65;;;2.40;99.90;;;-144.05;65.84;125687.94;5054415;28;20028;-81
2023/01/24 06:52:50;;;;;;;14.32;7.80;;;2.40;99.90;;;-144.05;65.86;125687.94;5037500;28;20087;-82
2023/01/24 06:55:17;;;;;;;12.40;7.22;;;2.40;99.90;;;-144.05;65.56;125687.94;5037315;28;20064;-82
2023/01/24 06:57:43;;;;;;;12.45;7.55;;;2.40;99.90;;;-144.05;65.51;125687.94;5055584;28;20033;-82
2023/01/24 07:00:10;;;;;;;10.60;7.40;;;2.40;99.90;;;-144.05;65.83;125687.94;5037462;28;20025;-81
2023/01/24 07:02:36;;;;;;;12.18;7.55;;;2.40;99.90;;;-144.05;65.60;125687.94;5055035;28;20033;-83
2023/01/24 07:05:02;;;;;;;11.82;6.75;;;2.40;99.90;;;-144.05;66.03;125687.94;5055486;28;20036;-81
2023/01/24 07:07:28;;;;;;;10.30;6.80;;;2.40;99.90;;;-144.05;65.97;125687.94;5055516;28;20032;-83
2023/01/24 07:09:54;;;;;;;11.27;6.50;;;2.40;99.90;;;-144.05;65.45;125687.94;5037717;28;20029;-81
2023/01/24 07:12:20;;;;;;;10.15;6.65;;;2.40;99.90;;;-144.05;65.95;125687.94;5036976;28;20017;-83
2023/01/24 07:14:46;;;;;;;9.75;6.05;;;2.40;99.90;;;-144.05;65.13;125687.94;5037116;28;20338;-85
2023/01/24 07:17:12;;;;;;;10.07;6.25;;;2.40;99.90;;;-144.05;65.68;125687.94;5037240;28;20056;-83
2023/01/24 07:19:39;;;;;;;8.70;5.55;;;2.40;99.90;;;-144.05;65.60;125687.94;5036994;28;20116;-82
2023/01/24 07:22:10;;;;;;;9.27;5.53;;;2.40;99.90;;;-144.05;65.45;125687.94;5038564;28;20033;-81
2023/01/24 07:24:37;;;;;;;9.15;6.28;;;2.40;99.90;;;-144.05;65.98;125687.94;5044641;28;20013;-82
2023/01/24 07:27:04;;;;;;;9.73;5.90;;;2.40;99.90;;;-144.05;65.55;125687.94;5058546;28;20025;-81
2023/01/24 07:29:29;;;;;;;9.05;5.95;;;2.40;99.90;;;-144.05;65.32;125687.94;5037107;28;20150;-81
2023/01/24 07:31:55;;;;;;;9.85;6.18;;;2.30;99.90;;;-144.05;65.43;125687.94;5040204;28;20512;-82
2023/01/24 07:34:21;;;;;;;9.35;5.97;;;2.40;99.90;;;-144.05;65.10;125687.94;5036234;28;20542;-81
2023/01/24 07:36:47;;;;;;;8.77;5.30;;;2.40;99.90;;;-144.05;65.17;125687.94;5037116;28;20039;-81
2023/01/24 07:39:15;;;;;;;9.02;6.28;;;2.40;99.90;;;-144.05;65.80;125687.94;5036066;28;20041;-81
2023/01/24 07:41:45;;;;;;;11.25;6.38;;;2.40;99.90;;;-144.05;65.88;125687.94;5036100;28;20029;-81
2023/01/24 07:44:13;;;;;;;10.50;5.82;;;2.30;99.90;;;-144.05;65.68;125687.94;5036383;28;20509;-82
2023/01/24 07:46:39;;;;;;;9.10;5.60;;;2.40;99.90;;;-144.05;65.44;125687.94;5035216;28;20389;-81
2023/01/24 07:49:05;;;;;;;9.57;5.97;;;2.40;99.90;;;-144.05;65.41;125687.94;5035887;28;20127;-82
2023/01/24 07:51:30;;;;;;;9.60;6.43;;;2.40;99.90;;;-144.05;65.08;125687.94;5035989;28;20079;-81
2023/01/24 07:53:56;;;;;;;9.38;5.75;;;2.40;99.90;;;-144.05;65.05;125687.94;5035741;28;20033;-82
2023/01/24 07:56:22;;;;;;;9.65;5.97;;;2.40;99.90;;;-144.05;64.97;125687.94;5036141;28;20040;-82
2023/01/24 07:58:48;;;;;;;9.90;6.05;;;2.40;99.90;;;-144.05;65.24;125687.94;5053685;28;20025;-81
2023/01/24 08:01:23;;;;;;;9.95;5.80;;;2.40;99.90;;;-144.05;65.22;125687.94;5035991;28;20025;-84
2023/01/24 08:03:49;;;;;;;7.05;4.75;;;2.40;99.90;;;-144.05;64.97;125687.94;5037815;28;20057;-83
2023/01/24 08:06:17;;;;;;;11.18;6.80;;;2.40;99.90;;;-144.05;64.93;125687.94;5036689;28;20369;-86
2023/01/24 08:08:43;;;;;;;10.38;6.47;;;2.40;99.90;;;-144.05;64.58;125687.94;5035523;28;20553;-83
2023/01/24 08:11:11;;;;;;;10.15;6.22;;;2.50;99.90;;;-144.05;64.45;125687.94;5035887;28;20028;-81
2023/01/24 08:13:37;;;;;;;10.82;6.88;;;2.50;99.90;;;-144.05;64.32;125687.94;5035472;28;20056;-81
2023/01/24 08:16:04;;;;;;;10.43;6.38;;;2.50;99.90;;;-144.05;64.75;125687.94;5035053;28;20033;-82
2023/01/24 08:18:29;;;;;;;9.88;6.35;;;2.50;99.90;;;-144.05;65.07;125687.94;5035008;28;20075;-83
2023/01/24 08:20:56;;;;;;;10.73;6.60;;;2.50;99.90;;;-144.05;64.86;125687.94;5035041;28;20025;-83
2023/01/24 08:23:23;;;;;;;9.60;6.63;;;2.50;99.90;;;-144.05;64.51;125687.94;5035396;28;20108;-81
2023/01/24 08:25:49;;;;;;;8.80;6.28;;;2.50;99.90;;;-144.05;64.63;125687.94;5035440;28;20083;-83
2023/01/24 08:28:15;;;;;;;11.18;6.97;;;2.50;99.90;;;-144.05;64.29;125687.94;5035520;28;20029;-83
2023/01/24 08:30:40;;;;;;;10.82;6.45;;;2.60;99.90;;;-144.05;64.43;125687.94;5035538;28;20032;-83
2023/01/24 08:33:08;;;;;;;10.05;6.35;;;2.60;99.90;;;-144.05;63.97;125687.94;5053172;28;20354;-81
2023/01/24 08:35:34;;;;;;;11.55;6.57;;;2.60;99.90;;;-144.05;64.07;125687.94;5035303;28;20056;-81
2023/01/24 08:38:00;;;;;;;14.07;6.22;;;2.60;99.90;;;-144.05;64.32;125687.94;5034703;28;20489;-81
2023/01/24 08:40:26;;;;;;;11.20;6.85;;;2.60;99.90;;;-144.05;64.26;125687.94;5035167;28;20033;-82
2023/01/24 08:42:52;;;;;;;8.77;6.13;;;2.60;99.90;;;-144.05;64.48;125687.94;5035247;28;20027;-82
2023/01/24 08:45:18;;;;;;;12.18;6.72;;;2.60;99.90;;;-144.05;64.79;125687.94;5034810;28;20021;-82
2023/01/24 08:47:44;;;;;;;11.25;7.22;;;2.60;99.90;;;-144.05;63.89;125687.94;5033634;28;20025;-82
2023/01/24 08:50:10;;;;;;;10.07;6.47;;;2.70;99.90;;;-144.05;64.04;125687.94;5035363;28;20029;-82
2023/01/24 08:52:36;;;;;;;10.25;6.72;;;2.70;99.90;;;-144.05;63.94;125687.94;5034823;28;20091;-82
2023/01/24 08:55:02;;;;;;;11.25;7.53;;;2.70;99.90;;;-144.05;64.22;125687.94;5034547;28;20064;-82
2023/01/24 08:57:28;;;;;;;11.38;7.43;;;2.70;99.90;;;-144.05;64.19;125687.94;5034576;28;20094;-82
2023/01/24 08:59:54;;;;;;;10.98;7.10;;;2.70;99.90;;;-144.05;63.92;125687.94;5034556;28;20515;-83
2023/01/24 09:02:20;;;;;;;10.73;6.78;;;2.70;99.90;;;-144.05;64.13;125687.94;5034770;28;20477;-84
2023/01/24 09:04:45;;;;;;;9.48;7.00;;;2.70;99.90;;;-144.05;64.21;125687.94;5035046;28;20025;-82
2023/01/24 09:07:12;;;;;;;10.98;7.57;;;2.60;99.90;;;-144.05;64.37;125687.94;5034617;28;20112;-81
2023/01/24 09:09:38;;;;;;;10.98;7.68;;;2.60;99.90;;;-144.05;63.73;125687.94;5034524;28;20044;-81
2023/01/24 09:12:06;;;;;;;11.32;7.32;;;2.60;99.90;;;-144.05;63.62;125687.94;5034780;28;20056;-83
2023/01/24 09:14:31;;;;;;;12.15;7.07;;;2.70;99.90;;;-144.05;63.55;125687.94;5052461;28;20068;-82
2023/01/24 09:16:57;;;;;;;11.23;7.47;;;2.70;99.90;;;-144.05;63.80;125687.94;5034820;28;20124;-82
2023/01/24 09:19:26;;;;;;;10.48;7.15;;;2.70;99.90;;;-144.05;63.81;125687.94;5034962;28;20040;-83
2023/01/24 09:21:56;;;;;;;12.20;7.57;;;2.70;99.90;;;-144.05;64.30;125687.94;5053092;28;20039;-82
2023/01/24 09:24:23;;;;;;;9.35;6.70;;;2.70;99.90;;;-144.05;64.09;125687.94;5059124;28;20067;-82
2023/01/24 09:26:49;;;;;;;13.57;7.75;;;2.70;99.90;;;-144.05;63.60;125687.94;5034731;28;20028;-83
2023/01/24 09:29:15;;;;;;;11.02;7.55;;;2.80;99.90;;;-144.05;63.45;125687.94;5052395;28;20394;-82
2023/01/24 09:31:41;;;;;;;12.02;7.95;;;2.70;99.90;;;-144.05;63.44;125687.94;5034479;28;20037;-81
2023/01/24 09:34:06;;;;;;;10.50;7.43;;;2.80;99.90;;;-144.05;63.22;125687.94;5034265;28;20083;-81
2023/01/24 09:36:33;;;;;;;11.75;7.25;;;2.80;99.90;;;-144.05;63.94;125687.94;5034136;28;20501;-83
2023/01/24 09:38:59;;;;;;;12.43;8.00;;;2.80;99.90;;;-144.05;63.74;125687.94;5033992;28;20397;-81
2023/01/24 09:42:22;;;;;;;11.50;8.10;;;2.80;99.90;;;-144.05;64.14;125687.94;5034222;28;20040;-81
2023/01/24 09:45:06;;;;;;;10.90;7.97;;;2.80;99.90;;;-144.05;64.41;125687.94;5034051;28;20083;-80
2023/01/24 09:47:57;;;;;;;11.18;7.75;;;2.70;99.90;;;-144.05;63.55;125687.94;5052309;28;20047;-82
2023/01/24 09:50:39;;;;;;;11.88;8.25;;;2.70;99.90;;;-144.05;63.47;125687.94;5033875;28;20025;-82
2023/01/24 09:53:26;;;;;;;11.52;8.40;;;2.80;99.90;;;-144.05;63.94;125687.94;5051979;28;20413;-82
2023/01/24 09:55:53;;;;;;;13.38;8.85;;;2.80;99.90;;;-144.05;63.87;125687.94;5034314;28;20124;-81
2023/01/24 09:58:45;;;;;;;12.73;7.65;;;2.90;99.90;;;-144.05;62.81;125687.94;5054648;28;20106;-82
2023/01/24 10:01:14;;;;;;;11.38;8.18;;;3.00;99.90;;;-144.05;62.21;125687.94;5037908;28;20461;-82
2023/01/24 10:03:42;;;;;;;12.88;8.68;;;3.00;99.90;;;-144.05;62.45;125687.94;5037955;28;20078;-82
2023/01/24 10:06:26;;;;;;;11.18;7.88;;;3.10;99.90;;;-144.05;62.09;125687.94;5055757;28;20075;-85
2023/01/24 10:09:32;;;;;;;10.35;7.65;;;3.10;99.90;;;-144.05;62.23;125687.94;5038392;28;20090;-82
2023/01/24 10:12:53;;;;;;;10.02;7.38;;;3.00;99.90;;;-144.05;62.74;125687.94;5038174;28;20033;-82
2023/01/24 10:16:18;;;;;;;11.15;8.20;;;3.00;99.90;;;-144.05;62.75;125687.94;5056789;28;20037;-83
2023/01/24 10:19:27;;;;;;;14.18;8.25;;;3.00;99.90;;;-144.05;62.94;125687.94;5039817;28;20102;-84
2023/01/24 10:22:44;;;;;;;12.15;7.88;;;3.00;99.90;;;-144.05;63.13;125687.94;5039741;28;20028;-83
2023/01/24 10:25:37;;;;;;;14.48;8.13;;;3.00;99.90;;;-144.05;63.67;125687.94;5039906;28;20029;-85
2023/01/24 10:28:03;;;;;;;17.00;8.88;;;3.00;99.90;;;-144.05;62.68;125687.94;5056264;22;20084;-81
2023/01/24 10:30:45;;;;;;;12.30;8.70;;;3.00;99.90;;;-144.05;62.82;125687.94;5057958;28;20182;-80
2023/01/24 10:33:20;;;;;;;15.35;8.82;;;3.00;99.90;;;-144.05;62.40;125687.94;5039188;28;20092;-82
2023/01/24 10:36:11;;;;;;;12.25;8.75;;;3.10;99.90;;;-144.05;62.20;125687.94;5057177;28;20025;-82
2023/01/24 10:38:37;;;;;;;11.95;8.23;;;3.20;99.90;;;-144.05;61.75;125687.94;5056925;28;20089;-83
2023/01/24 10:41:25;;;;;;;14.02;8.65;;;3.30;99.90;;;-144.05;61.41;125687.94;5080737;22;20432;-78
2023/01/24 10:44:13;;;;;;;14.15;8.60;;;3.20;99.90;;;-144.05;62.11;125687.94;4999190;28;20030;-78
2023/01/24 10:47:18;;;;;;;11.57;7.88;;;3.20;99.90;;;-144.05;61.43;125687.94;5000661;28;20121;-79